Time;durP1;ratioP1;P1;durP2;ratioP2;P2;SDS_P1;SDS_P2;PMS_P1;PMS_P2;Temp;Humidity;BMP_temperature;BMP_pressure;BME280_temperature;BME280_humidity;BME280_pressure;Samples;Min_cycle;Max_cycle;Signal;HPM_P1;HPM_P2
2021/09/10 00:02:22;;;;;;;19.67;14.60;;;16.60;99.90;;;;;;4992838;28;20870;-59
2021/09/10 00:04:51;;;;;;;19.63;14.70;;;16.50;99.90;;;;;;4993461;28;20501;-60
2021/09/10 00:07:18;;;;;;;19.53;14.20;;;16.40;99.90;;;;;;4993557;28;20446;-60
2021/09/10 00:09:45;;;;;;;19.80;13.80;;;16.40;99.90;;;;;;4993217;28;20917;-60
2021/09/10 00:12:12;;;;;;;16.43;14.07;;;16.40;99.90;;;;;;4993480;28;20484;-59
2021/09/10 00:14:39;;;;;;;18.80;14.00;;;16.50;99.90;;;;;;4993766;28;20451;-59
2021/09/10 00:17:06;;;;;;;20.57;13.17;;;16.50;99.90;;;;;;4993561;28;20916;-61
2021/09/10 00:19:33;;;;;;;17.90;13.20;;;16.50;99.90;;;;;;4992852;28;20858;-59
2021/09/10 00:22:01;;;;;;;16.67;13.33;;;16.50;99.90;;;;;;4992859;28;20454;-59
2021/09/10 00:24:28;;;;;;;18.60;13.80;;;16.50;99.90;;;;;;4993351;28;20458;-59
2021/09/10 00:26:55;;;;;;;17.20;13.30;;;16.40;99.90;;;;;;4993504;28;20474;-60
2021/09/10 00:29:22;;;;;;;20.67;14.30;;;16.40;99.90;;;;;;4992963;28;20470;-59
2021/09/10 00:31:49;;;;;;;16.93;13.30;;;16.30;99.90;;;;;;4992973;28;20490;-59
2021/09/10 00:34:17;;;;;;;17.50;13.17;;;16.20;99.90;;;;;;4992683;28;20459;-60
2021/09/10 00:36:44;;;;;;;16.97;13.10;;;16.20;99.90;;;;;;4992632;28;20530;-59
2021/09/10 00:39:14;;;;;;;18.70;14.20;;;16.20;99.90;;;;;;4993134;28;20450;-60
2021/09/10 00:41:41;;;;;;;16.00;13.23;;;16.20;99.90;;;;;;4992817;28;21099;-59
2021/09/10 00:44:08;;;;;;;21.33;14.40;;;16.30;99.90;;;;;;4993162;28;20510;-60
2021/09/10 00:46:35;;;;;;;20.33;13.10;;;16.30;99.90;;;;;;4992413;28;21034;-59
2021/09/10 00:49:04;;;;;;;17.80;12.70;;;16.20;99.90;;;;;;4992820;28;20454;-59
2021/09/10 00:51:31;;;;;;;16.60;12.77;;;16.30;99.90;;;;;;4992900;28;20470;-60
2021/09/10 00:53:58;;;;;;;20.37;14.53;;;16.20;99.90;;;;;;4992824;28;20486;-59
2021/09/10 00:56:26;;;;;;;20.13;14.30;;;16.30;99.90;;;;;;4992622;28;21034;-60
2021/09/10 00:58:56;;;;;;;22.23;13.53;;;16.30;99.90;;;;;;4992825;28;20450;-60
2021/09/10 01:01:23;;;;;;;23.57;14.10;;;16.30;99.90;;;;;;4992401;28;20474;-60
2021/09/10 01:03:51;;;;;;;19.87;13.43;;;16.30;99.90;;;;;;4993004;28;20450;-60
2021/09/10 01:06:19;;;;;;;19.70;13.80;;;16.30;99.90;;;;;;4992394;28;20451;-60
2021/09/10 01:08:47;;;;;;;18.50;13.00;;;16.30;99.90;;;;;;4992261;28;20874;-59
2021/09/10 01:11:16;;;;;;;18.50;13.10;;;16.30;99.90;;;;;;4972890;28;20475;-59
2021/09/10 01:13:45;;;;;;;21.63;13.70;;;16.40;99.90;;;;;;4973156;28;20546;-59
2021/09/10 01:16:13;;;;;;;19.87;14.07;;;16.40;99.90;;;;;;4982945;28;20801;-60
2021/09/10 01:18:40;;;;;;;16.77;12.83;;;16.40;99.90;;;;;;4992857;28;20450;-60
2021/09/10 01:21:07;;;;;;;21.83;13.30;;;16.30;99.90;;;;;;4992118;28;20470;-60
2021/09/10 01:23:34;;;;;;;21.10;14.37;;;16.30;99.90;;;;;;4991938;28;20454;-60
2021/09/10 01:26:03;;;;;;;18.23;13.40;;;16.20;99.90;;;;;;4992263;28;20455;-59
2021/09/10 01:28:30;;;;;;;17.43;13.67;;;16.10;99.90;;;;;;4992340;28;20454;-60
2021/09/10 01:30:57;;;;;;;17.57;13.40;;;16.20;99.90;;;;;;4991920;28;20548;-59
2021/09/10 01:33:24;;;;;;;17.53;12.83;;;16.20;99.90;;;;;;4992556;28;20860;-59
2021/09/10 01:35:51;;;;;;;15.90;12.13;;;16.30;99.90;;;;;;4992243;28;20454;-59
2021/09/10 01:38:18;;;;;;;18.83;12.90;;;16.40;99.90;;;;;;4992252;28;20450;-59
2021/09/10 01:40:47;;;;;;;17.70;13.17;;;16.30;99.90;;;;;;4991670;28;20473;-61
2021/09/10 01:43:15;;;;;;;20.60;13.50;;;16.30;99.90;;;;;;4992155;28;20442;-61
2021/09/10 01:45:42;;;;;;;18.30;12.73;;;16.20;99.90;;;;;;4992177;28;20509;-59
2021/09/10 01:48:09;;;;;;;16.93;12.63;;;16.20;99.90;;;;;;4995373;28;21006;-60
2021/09/10 01:50:36;;;;;;;17.00;13.10;;;16.30;99.90;;;;;;4995955;28;20470;-60
2021/09/10 01:53:03;;;;;;;17.93;13.43;;;16.20;99.90;;;;;;4996241;28;20833;-59
2021/09/10 01:55:32;;;;;;;20.10;13.60;;;16.30;99.90;;;;;;4995721;28;20454;-59
2021/09/10 01:58:00;;;;;;;16.90;13.00;;;16.20;99.90;;;;;;4996025;28;20478;-59
2021/09/10 02:00:28;;;;;;;18.93;13.37;;;16.20;99.90;;;;;;4995808;28;20561;-59
2021/09/10 02:02:55;;;;;;;22.80;14.67;;;16.10;99.90;;;;;;4995217;28;20804;-59
2021/09/10 02:05:22;;;;;;;24.50;14.73;;;16.00;99.90;;;;;;4995840;28;20458;-60
2021/09/10 02:07:49;;;;;;;19.47;14.03;;;16.00;99.90;;;;;;4995908;28;20513;-59
2021/09/10 02:10:18;;;;;;;18.63;14.33;;;16.10;99.90;;;;;;4995620;28;20549;-60
2021/09/10 02:12:45;;;;;;;20.53;14.60;;;16.10;99.90;;;;;;4995633;28;20914;-60
2021/09/10 02:15:12;;;;;;;22.70;13.80;;;16.10;99.90;;;;;;4995620;28;20450;-59
2021/09/10 02:17:41;;;;;;;17.20;13.57;;;16.10;99.90;;;;;;4995853;28;20537;-59
2021/09/10 02:20:12;;;;;;;18.00;13.87;;;16.00;99.90;;;;;;4995512;28;20855;-60
2021/09/10 02:22:39;;;;;;;23.53;14.63;;;16.10;99.90;;;;;;4995594;28;20447;-59
2021/09/10 02:25:11;;;;;;;17.87;13.00;;;16.10;99.90;;;;;;4995873;28;20450;-60
2021/09/10 02:27:38;;;;;;;17.37;12.80;;;16.10;99.90;;;;;;4995802;28;20946;-59
2021/09/10 02:30:06;;;;;;;18.90;14.30;;;16.00;99.90;;;;;;4995153;28;20482;-60
2021/09/10 02:32:33;;;;;;;16.47;12.87;;;16.10;99.90;;;;;;4995379;28;20486;-59
2021/09/10 02:35:01;;;;;;;16.50;12.43;;;16.10;99.90;;;;;;4995423;28;20450;-59
2021/09/10 02:37:28;;;;;;;19.93;13.90;;;16.10;99.90;;;;;;4995020;28;20522;-60
2021/09/10 02:39:55;;;;;;;19.00;13.63;;;16.10;99.90;;;;;;4995335;28;20473;-60
2021/09/10 02:42:22;;;;;;;21.63;14.77;;;16.10;99.90;;;;;;4995186;28;20454;-59
2021/09/10 02:44:49;;;;;;;17.53;12.80;;;16.10;99.90;;;;;;4994823;28;20446;-60
2021/09/10 02:47:17;;;;;;;19.90;13.43;;;16.00;99.90;;;;;;4994421;28;20804;-59
2021/09/10 02:49:44;;;;;;;19.83;12.90;;;16.00;99.90;;;;;;4994882;28;20478;-60
2021/09/10 02:52:12;;;;;;;18.50;14.00;;;16.00;99.90;;;;;;4995024;28;20454;-61
2021/09/10 02:54:39;;;;;;;17.93;12.73;;;16.00;99.90;;;;;;4994828;28;20455;-60
2021/09/10 02:57:06;;;;;;;17.73;12.67;;;16.00;99.90;;;;;;4994942;28;20454;-59
2021/09/10 02:59:33;;;;;;;21.07;13.70;;;16.00;99.90;;;;;;4994415;28;20513;-60
2021/09/10 03:02:00;;;;;;;16.80;13.10;;;15.90;99.90;;;;;;4994408;28;20446;-60
2021/09/10 03:04:27;;;;;;;17.93;13.10;;;15.90;99.90;;;;;;4994818;28;20446;-60
2021/09/10 03:06:54;;;;;;;19.03;13.83;;;15.90;99.90;;;;;;4995074;28;20454;-59
2021/09/10 03:09:23;;;;;;;18.53;13.30;;;15.90;99.90;;;;;;4994557;28;20473;-61
2021/09/10 03:11:50;;;;;;;19.30;13.23;;;15.80;99.90;;;;;;4994503;28;20894;-60
2021/09/10 03:14:17;;;;;;;19.90;14.40;;;15.60;99.90;;;;;;4994508;28;20474;-59
2021/09/10 03:16:44;;;;;;;20.20;14.03;;;15.60;99.90;;;;;;4994399;28;20583;-60
2021/09/10 03:19:11;;;;;;;17.20;12.90;;;15.50;99.90;;;;;;4994652;28;20868;-59
2021/09/10 03:21:39;;;;;;;20.60;13.03;;;15.60;99.90;;;;;;4994062;28;20544;-61
2021/09/10 03:24:07;;;;;;;19.43;14.40;;;15.60;99.90;;;;;;4994678;28;20446;-59
2021/09/10 03:26:35;;;;;;;19.13;15.00;;;15.60;99.90;;;;;;4994511;28;20528;-60
2021/09/10 03:29:02;;;;;;;19.80;14.23;;;15.60;99.90;;;;;;4994343;28;20472;-59
2021/09/10 03:31:29;;;;;;;18.47;13.80;;;15.60;99.90;;;;;;4993812;28;20475;-59
2021/09/10 03:33:56;;;;;;;18.60;14.00;;;15.70;99.90;;;;;;4989499;28;20541;-60
2021/09/10 03:36:23;;;;;;;18.73;13.50;;;15.70;99.90;;;;;;4993793;28;20458;-59
2021/09/10 03:38:52;;;;;;;20.60;13.50;;;15.70;99.90;;;;;;4993802;28;20442;-60
2021/09/10 03:41:19;;;;;;;16.27;12.03;;;15.70;99.90;;;;;;4993108;28;20467;-59
2021/09/10 03:43:52;;;;;;;18.47;12.90;;;15.70;99.90;;;;;;4993460;28;20443;-59
2021/09/10 03:46:19;;;;;;;19.07;13.60;;;15.70;99.90;;;;;;4993843;28;20443;-59
2021/09/10 03:48:47;;;;;;;18.67;13.80;;;15.60;99.90;;;;;;4993645;28;20450;-60
2021/09/10 03:51:14;;;;;;;19.60;14.50;;;15.60;99.90;;;;;;4992853;28;20529;-59
2021/09/10 03:53:41;;;;;;;17.30;13.10;;;15.60;99.90;;;;;;4989675;28;20478;-60
2021/09/10 03:56:08;;;;;;;19.50;13.40;;;15.60;99.90;;;;;;4993393;28;20517;-59
2021/09/10 03:58:35;;;;;;;19.40;13.80;;;15.60;99.90;;;;;;4993219;28;20553;-59
2021/09/10 04:01:03;;;;;;;19.57;13.83;;;15.60;99.90;;;;;;4992637;28;20470;-59
2021/09/10 04:03:32;;;;;;;20.90;13.80;;;15.60;99.90;;;;;;4993434;28;20442;-60
2021/09/10 04:05:59;;;;;;;17.33;12.77;;;15.60;99.90;;;;;;4993048;28;20450;-60
2021/09/10 04:08:27;;;;;;;17.80;13.50;;;15.60;99.90;;;;;;4993001;28;20973;-60
2021/09/10 04:10:54;;;;;;;23.97;13.90;;;15.60;99.90;;;;;;4991553;28;21039;-59
2021/09/10 04:13:21;;;;;;;22.10;14.10;;;15.40;99.90;;;;;;4992922;28;20548;-60
2021/09/10 04:15:48;;;;;;;19.30;13.50;;;15.30;99.90;;;;;;4993182;28;20450;-59
2021/09/10 04:18:16;;;;;;;17.53;13.40;;;15.20;99.90;;;;;;4992982;28;20451;-59
2021/09/10 04:20:43;;;;;;;18.37;13.47;;;15.30;99.90;;;;;;4992664;28;20474;-59
2021/09/10 04:23:10;;;;;;;19.87;13.70;;;15.20;99.90;;;;;;4992668;28;20451;-59
2021/09/10 04:25:37;;;;;;;21.93;14.90;;;15.20;99.90;;;;;;4992575;28;20870;-60
2021/09/10 04:28:07;;;;;;;15.80;12.17;;;15.20;99.90;;;;;;4989046;28;20446;-59
2021/09/10 04:30:34;;;;;;;17.53;13.17;;;15.30;99.90;;;;;;4992409;28;20478;-59
2021/09/10 04:33:01;;;;;;;21.53;13.20;;;15.30;99.90;;;;;;4992571;28;20947;-60
2021/09/10 04:35:29;;;;;;;20.77;13.03;;;15.30;99.90;;;;;;4992704;28;20450;-59
2021/09/10 04:37:56;;;;;;;17.47;12.30;;;15.30;99.90;;;;;;4992639;28;20501;-59
2021/09/10 04:40:24;;;;;;;16.77;11.30;;;15.30;99.90;;;;;;4991615;28;20473;-60
2021/09/10 04:42:51;;;;;;;15.53;12.00;;;15.40;99.90;;;;;;4991384;28;20485;-59
2021/09/10 04:45:18;;;;;;;14.87;12.23;;;15.30;99.90;;;;;;4992213;28;20560;-60
2021/09/10 04:47:45;;;;;;;17.70;12.60;;;15.30;99.90;;;;;;4991701;28;20462;-59
2021/09/10 04:50:15;;;;;;;20.43;13.10;;;15.40;99.90;;;;;;4991291;28;20853;-61
2021/09/10 04:52:43;;;;;;;17.33;12.60;;;15.40;99.90;;;;;;4992179;28;20442;-59
2021/09/10 04:55:11;;;;;;;16.83;12.07;;;15.40;99.90;;;;;;4992089;28;21007;-59
2021/09/10 04:57:39;;;;;;;16.33;13.20;;;15.30;99.90;;;;;;4992167;28;21023;-58
2021/09/10 05:00:07;;;;;;;16.20;11.47;;;15.20;99.90;;;;;;4990378;28;20474;-61
2021/09/10 05:02:34;;;;;;;18.23;13.03;;;15.30;99.90;;;;;;4991894;28;20525;-59
2021/09/10 05:05:01;;;;;;;23.90;13.03;;;15.30;99.90;;;;;;4991721;28;20592;-59
2021/09/10 05:07:28;;;;;;;15.57;11.73;;;15.30;99.90;;;;;;4991845;28;20509;-59
2021/09/10 05:09:56;;;;;;;16.77;12.70;;;15.30;99.90;;;;;;4992084;28;20521;-59
2021/09/10 05:12:23;;;;;;;20.27;12.57;;;15.20;99.90;;;;;;4992019;28;20497;-59
2021/09/10 05:14:52;;;;;;;16.80;13.10;;;15.30;99.90;;;;;;4991128;28;20849;-60
2021/09/10 05:17:19;;;;;;;18.47;13.53;;;15.20;99.90;;;;;;4992030;28;20457;-59
2021/09/10 05:19:46;;;;;;;26.47;12.30;;;15.30;99.90;;;;;;4991365;28;20478;-60
2021/09/10 05:22:13;;;;;;;17.50;12.47;;;15.20;99.90;;;;;;4991497;28;20618;-59
2021/09/10 05:24:41;;;;;;;18.10;13.17;;;15.20;99.90;;;;;;4990742;28;20446;-59
2021/09/10 05:27:09;;;;;;;17.77;13.23;;;15.20;99.90;;;;;;4991979;28;20449;-59
2021/09/10 05:29:36;;;;;;;18.20;13.13;;;15.30;99.90;;;;;;4991125;28;20458;-59
2021/09/10 05:32:03;;;;;;;17.73;13.07;;;15.30;99.90;;;;;;4991310;28;20948;-59
2021/09/10 05:34:30;;;;;;;19.73;12.37;;;15.30;99.90;;;;;;4991347;28;20536;-60
2021/09/10 05:36:57;;;;;;;19.60;12.10;;;15.40;99.90;;;;;;4990882;28;20458;-60
2021/09/10 05:39:24;;;;;;;19.33;13.83;;;15.40;99.90;;;;;;4990584;28;20450;-60
2021/09/10 05:41:51;;;;;;;18.65;13.40;;;15.40;99.90;;;;;;4988145;28;20934;-59
2021/09/10 05:44:20;;;;;;;18.63;13.10;;;15.50;99.90;;;;;;4991258;28;20246;-59
2021/09/10 05:46:47;;;;;;;19.53;12.80;;;15.50;99.90;;;;;;4991077;28;20450;-60
2021/09/10 05:49:14;;;;;;;14.07;11.60;;;15.70;99.90;;;;;;4990758;28;20454;-60
2021/09/10 05:51:41;;;;;;;17.20;12.23;;;16.00;99.90;;;;;;4991372;28;20474;-60
2021/09/10 05:54:08;;;;;;;21.30;12.60;;;16.60;99.90;;;;;;4991049;28;20478;-58
2021/09/10 05:56:35;;;;;;;18.37;11.43;;;17.10;99.90;;;;;;4991261;28;20505;-60
2021/09/10 05:59:02;;;;;;;16.10;11.20;;;17.70;99.90;;;;;;4987324;28;20443;-60
2021/09/10 06:01:30;;;;;;;17.73;11.40;;;18.10;99.90;;;;;;4989874;28;20529;-60
2021/09/10 06:03:57;;;;;;;13.30;10.30;;;18.60;99.90;;;;;;4990042;28;20447;-60
2021/09/10 06:06:24;;;;;;;11.60;10.17;;;18.80;99.90;;;;;;4990859;28;20462;-59
2021/09/10 06:08:51;;;;;;;11.37;9.60;;;18.90;99.90;;;;;;4990912;28;20508;-60
2021/09/10 06:11:18;;;;;;;19.37;10.10;;;19.20;99.90;;;;;;4990660;28;20533;-60
2021/09/10 06:13:45;;;;;;;14.40;10.73;;;19.50;99.90;;;;;;4990926;28;20992;-59
2021/09/10 06:16:13;;;;;;;12.20;9.57;;;19.70;99.90;;;;;;4990996;28;20505;-59
2021/09/10 06:18:41;;;;;;;10.93;9.83;;;19.80;99.90;;;;;;4986860;28;20455;-60
2021/09/10 06:21:08;;;;;;;12.60;9.63;;;20.20;99.90;;;;;;4990940;28;20462;-60
2021/09/10 06:23:35;;;;;;;13.27;10.30;;;20.70;99.90;;;;;;4990942;28;20509;-61
2021/09/10 06:26:02;;;;;;;10.33;8.90;;;20.90;99.90;;;;;;4991226;28;20529;-60
2021/09/10 06:28:29;;;;;;;13.10;9.73;;;21.30;99.90;;;;;;4987185;28;20446;-60
2021/09/10 06:30:56;;;;;;;10.40;9.30;;;21.60;99.90;;;;;;4990634;28;20502;-60
2021/09/10 06:33:23;;;;;;;12.43;9.47;;;21.80;99.90;;;;;;4991261;28;20872;-61
2021/09/10 06:35:52;;;;;;;11.60;9.57;;;21.80;99.90;;;;;;4992877;28;20493;-59
2021/09/10 06:38:19;;;;;;;11.50;9.63;;;21.60;99.90;;;;;;4993470;28;20446;-60
2021/09/10 06:40:46;;;;;;;10.80;9.70;;;21.50;99.90;;;;;;4993343;28;20668;-60
2021/09/10 06:43:14;;;;;;;11.40;9.53;;;21.10;99.90;;;;;;4993117;28;20537;-60
2021/09/10 06:45:43;;;;;;;9.60;8.60;;;21.10;99.90;;;;;;4993686;28;20457;-59
2021/09/10 06:48:10;;;;;;;13.87;10.03;;;20.90;99.90;;;;;;4993691;28;20497;-60
2021/09/10 06:50:37;;;;;;;13.00;9.50;;;21.10;99.90;;;;;;4989344;28;21182;-60
2021/09/10 06:53:07;;;;;;;11.13;9.80;;;21.30;99.90;;;;;;4993064;28;20929;-60
2021/09/10 06:55:34;;;;;;;14.37;10.77;;;21.30;99.90;;;;;;4993160;28;20492;-59
2021/09/10 06:58:01;;;;;;;12.77;10.37;;;21.60;99.90;;;;;;4993250;28;20972;-59
2021/09/10 07:00:28;;;;;;;14.33;10.40;;;21.90;99.90;;;;;;4993052;28;20497;-60
2021/09/10 07:02:55;;;;;;;12.57;9.70;;;21.80;99.90;;;;;;4993295;28;20509;-60
2021/09/10 07:05:22;;;;;;;13.63;10.30;;;21.80;99.90;;;;;;4993367;28;20865;-59
2021/09/10 07:07:51;;;;;;;11.33;9.50;;;21.90;99.90;;;;;;4994116;28;20451;-61
2021/09/10 07:10:23;;;;;;;12.20;9.43;;;22.30;99.90;;;;;;4994064;28;20566;-59
2021/09/10 07:12:50;;;;;;;10.90;9.43;;;22.80;99.90;;;;;;4994571;28;20494;-60
2021/09/10 07:15:17;;;;;;;13.60;9.90;;;22.90;99.90;;;;;;4994888;28;20649;-60
2021/09/10 07:17:44;;;;;;;13.53;9.73;;;23.00;99.90;;;;;;4994591;28;20446;-60
2021/09/10 07:20:12;;;;;;;10.77;8.87;;;23.20;99.90;;;;;;4994329;28;20466;-60
2021/09/10 07:22:39;;;;;;;10.00;8.50;;;23.20;99.90;;;;;;4994061;28;20501;-60
2021/09/10 07:25:07;;;;;;;9.70;8.63;;;23.40;99.90;;;;;;4994510;28;20438;-60
2021/09/10 07:27:35;;;;;;;11.30;9.13;;;23.60;99.90;;;;;;4994511;28;20454;-59
2021/09/10 07:30:03;;;;;;;10.93;9.27;;;23.70;99.90;;;;;;4994216;28;20538;-60
2021/09/10 07:32:29;;;;;;;10.80;8.70;;;23.50;99.90;;;;;;4994040;28;20458;-59
2021/09/10 07:34:56;;;;;;;9.70;8.80;;;23.50;99.90;;;;;;4994151;28;20482;-60
2021/09/10 07:37:27;;;;;;;10.70;9.00;;;23.70;99.90;;;;;;4994045;28;20451;-60
2021/09/10 07:39:54;;;;;;;11.30;8.97;;;23.40;99.90;;;;;;4993971;28;20483;-60
2021/09/10 07:42:22;;;;;;;10.03;8.03;;;23.20;99.90;;;;;;4993707;28;20914;-60
2021/09/10 07:44:50;;;;;;;10.67;8.70;;;23.10;99.90;;;;;;4993061;28;20447;-60
2021/09/10 07:47:18;;;;;;;8.83;7.93;;;23.10;99.90;;;;;;4994028;28;20528;-60
2021/09/10 07:49:45;;;;;;;9.43;8.47;;;23.40;99.90;;;;;;4993785;28;21019;-59
2021/09/10 07:52:12;;;;;;;9.17;7.87;;;23.60;99.90;;;;;;4993927;28;20450;-60
2021/09/10 07:54:39;;;;;;;9.00;8.10;;;23.80;99.90;;;;;;4993927;28;20913;-60
2021/09/10 07:57:06;;;;;;;9.90;8.80;;;23.90;99.90;;;;;;4993405;28;20878;-60
2021/09/10 07:59:33;;;;;;;9.67;8.67;;;23.90;99.90;;;;;;4993761;28;20455;-60
2021/09/10 08:02:02;;;;;;;9.07;8.17;;;24.20;99.90;;;;;;4992712;28;20811;-60
2021/09/10 08:04:30;;;;;;;11.53;9.03;;;23.90;99.90;;;;;;4993473;28;21165;-60
2021/09/10 08:06:57;;;;;;;12.10;8.70;;;23.60;99.90;;;;;;4993663;28;20454;-60
2021/09/10 08:09:24;;;;;;;8.97;8.17;;;23.80;99.90;;;;;;4993583;28;20497;-60
2021/09/10 08:11:51;;;;;;;9.07;8.20;;;23.90;99.90;;;;;;4992926;28;20466;-59
2021/09/10 08:14:18;;;;;;;11.80;8.70;;;23.90;99.90;;;;;;4993202;28;20507;-60
2021/09/10 08:16:45;;;;;;;9.63;8.63;;;24.10;99.90;;;;;;4993356;28;20450;-59
2021/09/10 08:19:14;;;;;;;9.97;8.73;;;24.50;99.90;;;;;;4993384;28;20474;-60
2021/09/10 08:21:41;;;;;;;9.17;8.27;;;25.00;99.90;;;;;;4992970;28;21000;-60
2021/09/10 08:24:09;;;;;;;10.23;8.47;;;25.20;99.90;;;;;;4993129;28;20450;-60
2021/09/10 08:26:36;;;;;;;9.63;8.63;;;25.60;99.90;;;;;;4992926;28;20541;-60
2021/09/10 08:29:03;;;;;;;11.93;9.13;;;26.00;99.90;;;;;;4992713;28;20450;-60
2021/09/10 08:31:30;;;;;;;28.47;9.13;;;26.20;99.90;;;;;;4992544;28;21046;-60
2021/09/10 08:33:57;;;;;;;10.20;8.27;;;26.50;99.90;;;;;;4992956;28;21105;-60
2021/09/10 08:36:26;;;;;;;10.00;8.50;;;26.70;99.90;;;;;;4992787;28;20490;-60
2021/09/10 08:38:53;;;;;;;9.70;8.43;;;26.80;99.90;;;;;;4992554;28;20458;-60
2021/09/10 08:41:25;;;;;;;10.60;8.57;;;26.60;99.90;;;;;;4992841;28;20524;-61
2021/09/10 08:43:52;;;;;;;10.60;8.73;;;26.60;99.90;;;;;;4984044;28;20834;-61
2021/09/10 08:46:19;;;;;;;8.67;7.87;;;26.40;99.90;;;;;;4984291;28;20528;-60
2021/09/10 08:48:47;;;;;;;9.40;8.10;;;26.80;99.90;;;;;;4992144;28;20458;-61
2021/09/10 08:51:15;;;;;;;9.23;8.30;;;26.70;99.90;;;;;;4992054;28;20474;-59
2021/09/10 08:53:44;;;;;;;9.80;8.60;;;26.70;99.90;;;;;;4989160;28;20448;-62
2021/09/10 08:56:11;;;;;;;9.50;8.63;;;26.70;99.90;;;;;;4992081;28;20552;-61
2021/09/10 08:58:38;;;;;;;8.97;8.07;;;26.90;99.90;;;;;;4991516;28;20462;-61
2021/09/10 09:01:06;;;;;;;9.80;8.37;;;27.20;99.90;;;;;;4991998;28;20474;-62
2021/09/10 09:03:34;;;;;;;12.70;9.40;;;27.60;99.90;;;;;;4991841;28;20451;-61
2021/09/10 09:06:02;;;;;;;9.43;8.40;;;27.60;99.90;;;;;;4991729;28;20501;-61
2021/09/10 09:08:29;;;;;;;10.43;7.93;;;27.90;99.90;;;;;;4991977;28;20805;-62
2021/09/10 09:11:00;;;;;;;8.77;7.87;;;28.40;99.90;;;;;;4992099;28;20528;-61
2021/09/10 09:13:29;;;;;;;8.40;7.60;;;28.00;99.90;;;;;;4991759;28;20458;-62
2021/09/10 09:16:23;;;;;;;8.73;7.90;;;28.40;99.90;;;;;;4992080;28;21042;-61
2021/09/10 09:18:52;;;;;;;8.93;8.00;;;28.70;99.90;;;;;;4991550;28;20475;-62
2021/09/10 09:21:25;;;;;;;9.20;8.30;;;28.70;99.90;;;;;;4992031;28;20478;-62
2021/09/10 09:23:53;;;;;;;11.13;8.70;;;28.90;99.90;;;;;;4990277;28;20462;-61
2021/09/10 09:26:24;;;;;;;10.57;8.73;;;28.40;99.90;;;;;;4982240;28;20446;-63
2021/09/10 09:29:03;;;;;;;10.00;8.90;;;28.80;99.90;;;;;;4983186;28;20488;-62
2021/09/10 09:31:30;;;;;;;10.07;9.10;;;27.80;99.90;;;;;;4990613;28;20528;-60
2021/09/10 09:33:58;;;;;;;9.90;8.70;;;27.80;99.90;;;;;;4991823;28;20534;-62
2021/09/10 09:36:26;;;;;;;11.67;9.63;;;27.90;99.90;;;;;;4991358;28;21020;-61
2021/09/10 09:38:55;;;;;;;9.47;8.57;;;27.50;99.90;;;;;;4991222;28;20549;-61
2021/09/10 09:41:24;;;;;;;9.50;8.60;;;27.40;99.90;;;;;;4991012;28;21039;-61
2021/09/10 09:43:53;;;;;;;8.60;7.70;;;27.50;99.90;;;;;;4991665;28;20454;-62
2021/09/10 09:46:21;;;;;;;9.60;8.60;;;27.50;99.90;;;;;;4991910;28;20500;-61
2021/09/10 09:48:50;;;;;;;10.80;9.63;;;28.20;99.90;;;;;;4991328;28;20458;-61
2021/09/10 09:51:19;;;;;;;9.73;8.73;;;28.50;99.90;;;;;;4971977;28;20475;-61
2021/09/10 09:53:48;;;;;;;9.10;8.20;;;28.50;99.90;;;;;;4980989;28;20916;-61
2021/09/10 09:56:15;;;;;;;9.93;8.87;;;28.90;99.90;;;;;;4991570;28;20482;-62
2021/09/10 09:58:44;;;;;;;10.03;7.90;;;29.50;99.90;;;;;;4991217;28;20513;-63
2021/09/10 10:01:12;;;;;;;9.47;8.57;;;28.30;99.90;;;;;;4989934;28;20525;-63
2021/09/10 10:03:40;;;;;;;11.30;10.17;;;28.50;99.90;;;;;;4991699;28;20473;-63
2021/09/10 10:06:14;;;;;;;12.57;10.87;;;28.10;99.90;;;;;;4991519;28;20450;-63
2021/09/10 10:08:52;;;;;;;14.80;11.90;;;28.00;99.90;;;;;;4993861;28;21020;-62
2021/09/10 10:11:22;;;;;;;13.10;11.80;;;27.80;99.90;;;;;;4992416;28;20471;-62
2021/09/10 10:14:13;;;;;;;14.53;12.50;;;28.20;99.90;;;;;;4994014;28;20450;-63
2021/09/10 10:16:41;;;;;;;15.07;12.57;;;28.40;99.90;;;;;;4992249;28;20482;-62
2021/09/10 10:19:48;;;;;;;14.40;12.07;;;27.60;99.90;;;;;;4995295;28;20454;-62
2021/09/10 10:22:15;;;;;;;17.37;12.27;;;25.50;99.90;;;;;;4991095;28;20457;-60
2021/09/10 10:24:45;;;;;;;14.90;13.30;;;24.70;99.90;;;;;;4989591;28;20522;-61
2021/09/10 10:27:39;;;;;;;14.93;12.20;;;24.60;99.90;;;;;;4993762;28;20497;-60
2021/09/10 10:30:29;;;;;;;15.90;12.33;;;24.60;99.90;;;;;;4993032;28;20481;-60
2021/09/10 10:32:56;;;;;;;17.97;13.30;;;24.90;99.90;;;;;;4993802;28;20450;-61
2021/09/10 10:35:25;;;;;;;13.53;11.53;;;25.60;99.90;;;;;;4993686;28;20486;-60
2021/09/10 10:37:54;;;;;;;13.00;10.60;;;26.40;99.90;;;;;;4990059;28;20879;-62
2021/09/10 10:40:26;;;;;;;11.50;10.40;;;27.20;99.90;;;;;;4993288;28;20466;-61
2021/09/10 10:42:55;;;;;;;14.17;10.57;;;27.30;99.90;;;;;;4993210;28;20521;-60
2021/09/10 10:45:55;;;;;;;11.23;10.03;;;27.10;99.90;;;;;;4993389;28;21015;-61
2021/09/10 10:48:49;;;;;;;12.67;9.87;;;27.50;99.90;;;;;;4990999;28;20505;-61
2021/09/10 10:51:39;;;;;;;11.90;10.50;;;27.40;99.90;;;;;;4993253;28;20462;-60
2021/09/10 10:54:11;;;;;;;11.80;9.70;;;27.30;99.90;;;;;;4993322;28;20465;-60
2021/09/10 10:56:58;;;;;;;12.10;10.13;;;27.00;99.90;;;;;;4991955;28;21022;-59
2021/09/10 10:59:35;;;;;;;11.33;10.23;;;26.70;99.90;;;;;;4990411;28;20450;-60
2021/09/10 11:02:28;;;;;;;11.67;10.00;;;26.50;99.90;;;;;;4992983;28;20460;-59
2021/09/10 11:05:02;;;;;;;10.17;9.13;;;26.80;99.90;;;;;;4992669;28;20501;-60
2021/09/10 11:07:31;;;;;;;7.73;6.93;;;26.70;99.90;;;;;;4989386;28;20443;-60
2021/09/10 11:10:00;;;;;;;9.10;8.07;;;26.90;99.90;;;;;;4993163;28;20466;-59
2021/09/10 11:12:27;;;;;;;11.43;9.07;;;26.40;99.90;;;;;;4992079;28;20505;-59
2021/09/10 11:14:55;;;;;;;10.33;9.33;;;26.00;99.90;;;;;;4992637;28;20438;-60
2021/09/10 11:17:27;;;;;;;9.80;8.80;;;25.40;99.90;;;;;;4993064;28;20458;-59
2021/09/10 11:19:55;;;;;;;11.07;9.93;;;24.90;99.90;;;;;;4990057;28;20474;-60
2021/09/10 11:22:24;;;;;;;10.80;9.70;;;24.50;99.90;;;;;;4989089;28;20450;-60
2021/09/10 11:25:03;;;;;;;10.53;8.17;;;24.20;99.90;;;;;;4993079;28;20447;-60
2021/09/10 11:27:32;;;;;;;11.87;8.33;;;24.20;99.90;;;;;;4993083;28;20497;-60
2021/09/10 11:30:06;;;;;;;15.03;9.20;;;24.00;99.90;;;;;;4992904;28;20475;-60
2021/09/10 11:32:33;;;;;;;11.40;8.60;;;24.00;99.90;;;;;;4992942;28;20863;-60
2021/09/10 11:35:00;;;;;;;11.40;9.80;;;23.70;99.90;;;;;;4992590;28;20496;-60
2021/09/10 11:37:32;;;;;;;12.57;9.87;;;23.60;99.90;;;;;;4993696;28;20570;-60
2021/09/10 11:40:00;;;;;;;13.73;9.20;;;23.40;99.90;;;;;;4992441;28;20532;-58
2021/09/10 11:42:34;;;;;;;11.50;8.97;;;23.40;99.90;;;;;;4990443;28;20601;-60
2021/09/10 11:45:04;;;;;;;9.77;8.77;;;23.30;99.90;;;;;;4992453;28;20458;-60
2021/09/10 11:47:31;;;;;;;11.57;9.53;;;23.40;99.90;;;;;;4992658;28;20438;-59
2021/09/10 11:49:59;;;;;;;10.10;8.67;;;23.50;99.90;;;;;;4992405;28;20458;-60
2021/09/10 11:52:36;;;;;;;10.30;8.40;;;23.60;99.90;;;;;;4992394;28;20944;-60
2021/09/10 11:55:17;;;;;;;10.20;9.13;;;23.50;99.90;;;;;;4992950;28;20442;-59
2021/09/10 11:57:45;;;;;;;10.87;9.77;;;23.30;99.90;;;;;;4992875;28;20446;-59
2021/09/10 12:00:25;;;;;;;11.00;9.37;;;23.30;99.90;;;;;;4988607;28;20462;-59
2021/09/10 12:02:56;;;;;;;10.60;8.83;;;23.30;99.90;;;;;;4989309;28;20505;-60
2021/09/10 12:05:23;;;;;;;11.43;9.10;;;23.50;99.90;;;;;;4993548;28;20452;-59
2021/09/10 12:07:52;;;;;;;11.53;10.30;;;23.60;99.90;;;;;;4993339;28;21030;-61
2021/09/10 12:10:29;;;;;;;11.97;10.33;;;23.40;99.90;;;;;;4993365;28;20474;-60
2021/09/10 12:13:09;;;;;;;12.20;10.00;;;23.50;99.90;;;;;;4993197;28;20524;-60
2021/09/10 12:15:37;;;;;;;12.97;10.70;;;23.80;99.90;;;;;;4993342;28;20485;-61
2021/09/10 12:18:09;;;;;;;15.33;12.60;;;24.00;99.90;;;;;;4993682;28;20512;-60
2021/09/10 12:20:37;;;;;;;15.53;11.40;;;23.90;99.90;;;;;;4993232;28;20471;-60
2021/09/10 12:23:06;;;;;;;13.70;11.43;;;24.10;99.90;;;;;;4992770;28;20458;-60
2021/09/10 12:25:47;;;;;;;13.57;11.57;;;24.40;99.90;;;;;;4993047;28;20574;-60
2021/09/10 12:28:19;;;;;;;14.63;12.70;;;24.40;99.90;;;;;;4993248;28;20454;-60
2021/09/10 12:30:48;;;;;;;15.70;12.80;;;24.50;99.90;;;;;;4990646;28;20509;-59
2021/09/10 12:33:17;;;;;;;15.63;12.70;;;24.40;99.90;;;;;;4988267;28;20443;-60
2021/09/10 12:35:45;;;;;;;14.13;12.30;;;24.40;99.90;;;;;;4989365;28;20478;-59
2021/09/10 12:38:15;;;;;;;13.87;11.83;;;24.30;99.90;;;;;;4991114;28;20508;-59
2021/09/10 12:40:43;;;;;;;12.30;10.80;;;24.20;99.90;;;;;;4991687;28;20524;-60
2021/09/10 12:43:12;;;;;;;14.63;12.40;;;24.20;99.90;;;;;;4991522;28;20509;-60